createdAt,value
2023-03-16T00:02:41.964Z,90.40
2023-03-16T00:13:03.193Z,90.40
2023-03-16T00:23:28.319Z,90.90
2023-03-16T00:33:49.751Z,90.70
2023-03-16T00:44:11.926Z,91.00
2023-03-16T00:54:33.804Z,90.80
2023-03-16T01:04:55.134Z,90.50
2023-03-16T01:15:16.192Z,90.40
2023-03-16T01:25:37.698Z,90.10
2023-03-16T01:36:04.194Z,89.80
2023-03-16T01:46:34.227Z,89.70
2023-03-16T01:57:08.283Z,89.80
2023-03-16T02:07:35.070Z,89.90
2023-03-16T02:18:00.171Z,89.60
2023-03-16T02:28:48.604Z,89.10
2023-03-16T02:39:09.872Z,89.30
2023-03-16T02:49:45.294Z,89.70
2023-03-16T03:00:12.316Z,89.50
2023-03-16T03:10:34.915Z,89.80
2023-03-16T03:20:56.384Z,90.20
2023-03-16T03:31:22.183Z,90.80
2023-03-16T03:41:45.561Z,91.10
2023-03-16T03:52:07.290Z,91.50
2023-03-16T04:02:29.297Z,91.90
2023-03-16T04:12:51.047Z,92.20
2023-03-16T04:23:12.415Z,92.40
2023-03-16T04:33:37.958Z,92.50
2023-03-16T04:44:00.383Z,92.40
2023-03-16T04:54:22.195Z,92.40
2023-03-16T05:04:43.899Z,92.20
2023-03-16T05:15:08.222Z,92.00
2023-03-16T05:25:32.400Z,92.20
2023-03-16T05:35:58.126Z,92.40
2023-03-16T05:46:20.938Z,92.80
2023-03-16T05:56:43.718Z,93.00
2023-03-16T06:07:05.540Z,93.40
2023-03-16T06:17:28.192Z,93.50
2023-03-16T06:27:50.474Z,93.70
2023-03-16T06:38:12.998Z,93.90
2023-03-16T06:48:58.204Z,94.10
2023-03-16T06:59:19.939Z,94.10
2023-03-16T07:09:54.681Z,94.00
2023-03-16T07:20:18.638Z,93.80
2023-03-16T07:30:41.303Z,93.30
2023-03-16T07:41:05.792Z,92.60
2023-03-16T07:51:28.914Z,92.00
2023-03-16T08:01:50.744Z,91.30
2023-03-16T08:12:12.954Z,90.90
2023-03-16T08:22:37.257Z,90.50
2023-03-16T08:33:01.613Z,90.40
2023-03-16T08:43:26.821Z,90.00
2023-03-16T08:53:48.439Z,90.00
2023-03-16T09:04:09.984Z,89.70
2023-03-16T09:14:25.748Z,90.20
2023-03-16T09:24:48.484Z,90.20
2023-03-16T09:35:09.897Z,89.70
2023-03-16T09:45:36.198Z,89.60
2023-03-16T09:56:10.900Z,89.50
2023-03-16T10:06:33.211Z,89.70
2023-03-16T10:17:06.367Z,89.70
2023-03-16T10:27:42.890Z,89.40
2023-03-16T10:38:04.161Z,89.20
2023-03-16T10:48:28.425Z,88.80
2023-03-16T10:58:49.846Z,88.30
2023-03-16T11:09:23.153Z,88.00
2023-03-16T11:19:57.744Z,87.90
2023-03-16T11:30:33.898Z,87.70
2023-03-16T11:41:21.532Z,87.80
2023-03-16T11:52:17.317Z,87.30
2023-03-16T12:03:18.038Z,87.10
2023-03-16T12:14:09.160Z,87.10
2023-03-16T12:24:45.504Z,87.00
2023-03-16T12:35:37.574Z,87.40
2023-03-16T12:46:04.776Z,87.60
2023-03-16T12:56:33.899Z,88.00
2023-03-16T13:07:28.401Z,88.40
2023-03-16T13:18:04.470Z,88.50
2023-03-16T13:28:31.707Z,89.10
2023-03-16T13:39:16.369Z,89.30
2023-03-16T13:50:04.582Z,89.50
2023-03-16T14:00:35.410Z,89.80
2023-03-16T14:11:00.607Z,90.10
2023-03-16T14:21:27.686Z,90.90
2023-03-16T14:31:49.740Z,90.50
2023-03-16T14:42:30.965Z,91.20
2023-03-16T14:52:56.567Z,91.80
2023-03-16T15:03:18.690Z,91.90
2023-03-16T15:13:40.002Z,92.40
2023-03-16T15:24:01.485Z,92.40
2023-03-16T15:34:22.802Z,92.30
2023-03-16T15:44:46.113Z,92.40
2023-03-16T15:55:18.026Z,92.50
2023-03-16T16:05:39.993Z,92.70
2023-03-16T16:16:01.505Z,92.80
2023-03-16T16:26:46.944Z,92.90
2023-03-16T16:37:10.577Z,92.30
2023-03-16T16:47:31.892Z,91.70
2023-03-16T16:57:55.288Z,91.20
2023-03-16T17:08:17.126Z,90.70
2023-03-16T17:18:39.154Z,90.30
2023-03-16T17:29:03.238Z,90.00
2023-03-16T17:39:34.525Z,89.60
2023-03-16T17:49:57.153Z,88.90
2023-03-16T18:00:33.172Z,88.40
2023-03-16T18:10:58.286Z,88.30
2023-03-16T18:21:24.593Z,88.70
2023-03-16T18:31:47.857Z,89.10
2023-03-16T18:42:23.250Z,89.80
2023-03-16T18:52:45.072Z,90.60
2023-03-16T19:03:09.264Z,91.10
2023-03-16T19:13:30.539Z,91.20
2023-03-16T19:24:01.617Z,91.10
2023-03-16T19:34:23.453Z,91.50
2023-03-16T19:44:48.943Z,91.40
2023-03-16T19:55:19.162Z,91.50
2023-03-16T20:05:40.519Z,91.70
2023-03-16T20:16:03.343Z,91.80
2023-03-16T20:26:32.259Z,91.90
2023-03-16T20:36:54.230Z,92.10
2023-03-16T20:47:18.247Z,92.40
2023-03-16T20:57:42.564Z,92.60
2023-03-16T21:08:04.006Z,92.60
2023-03-16T21:18:25.835Z,92.60
2023-03-16T21:28:57.740Z,92.30
2023-03-16T21:39:23.643Z,92.20
2023-03-16T21:49:45.973Z,91.60
2023-03-16T22:00:08.454Z,91.50
2023-03-16T22:10:30.346Z,91.10
2023-03-16T22:20:51.887Z,90.70
2023-03-16T22:31:17.069Z,90.40
2023-03-16T22:41:38.604Z,91.00
2023-03-16T22:51:59.849Z,90.30
2023-03-16T23:02:26.789Z,90.10
2023-03-16T23:12:49.384Z,89.60
2023-03-16T23:23:11.292Z,89.20
2023-03-16T23:33:32.406Z,89.20
2023-03-16T23:43:54.269Z,89.00
2023-03-16T23:54:27.558Z,88.70
